sensor_id;sensor_type;location;lat;lon;timestamp;temperature;humidity
57106;DHT22;62662;56.788;23.942;2022-10-31T00:00:46;3.50;99.90
57106;DHT22;62662;56.788;23.942;2022-10-31T00:03:13;3.50;99.90
57106;DHT22;62662;56.788;23.942;2022-10-31T00:05:48;3.50;99.90
57106;DHT22;62662;56.788;23.942;2022-10-31T00:08:16;3.40;99.90
57106;DHT22;62662;56.788;23.942;2022-10-31T00:10:44;3.40;99.90
57106;DHT22;62662;56.788;23.942;2022-10-31T00:13:12;3.40;99.90
57106;DHT22;62662;56.788;23.942;2022-10-31T00:15:40;3.40;99.90
57106;DHT22;62662;56.788;23.942;2022-10-31T00:18:09;3.40;99.90
57106;DHT22;62662;56.788;23.942;2022-10-31T00:20:36;3.40;99.90
57106;DHT22;62662;56.788;23.942;2022-10-31T00:23:04;3.40;99.90
57106;DHT22;62662;56.788;23.942;2022-10-31T00:25:38;3.40;99.90
57106;DHT22;62662;56.788;23.942;2022-10-31T00:28:07;3.40;99.90
57106;DHT22;62662;56.788;23.942;2022-10-31T00:30:34;3.40;99.90
57106;DHT22;62662;56.788;23.942;2022-10-31T00:33:03;3.40;99.90
57106;DHT22;62662;56.788;23.942;2022-10-31T00:35:32;3.40;99.90
57106;DHT22;62662;56.788;23.942;2022-10-31T00:37:59;3.40;99.90
57106;DHT22;62662;56.788;23.942;2022-10-31T00:40:26;3.40;99.90
57106;DHT22;62662;56.788;23.942;2022-10-31T00:42:53;3.50;99.90
57106;DHT22;62662;56.788;23.942;2022-10-31T00:45:20;3.40;99.90
57106;DHT22;62662;56.788;23.942;2022-10-31T00:47:46;3.30;99.90
57106;DHT22;62662;56.788;23.942;2022-10-31T00:50:13;3.30;99.90
57106;DHT22;62662;56.788;23.942;2022-10-31T00:52:40;3.30;99.90
57106;DHT22;62662;56.788;23.942;2022-10-31T00:55:07;3.30;99.90
57106;DHT22;62662;56.788;23.942;2022-10-31T00:57:34;3.40;99.90
57106;DHT22;62662;56.788;23.942;2022-10-31T01:00:01;3.40;99.90
57106;DHT22;62662;56.788;23.942;2022-10-31T01:02:29;3.30;99.90
57106;DHT22;62662;56.788;23.942;2022-10-31T01:04:56;3.30;99.90
57106;DHT22;62662;56.788;23.942;2022-10-31T01:07:23;3.30;99.90
57106;DHT22;62662;56.788;23.942;2022-10-31T01:09:50;3.40;99.90
57106;DHT22;62662;56.788;23.942;2022-10-31T01:12:16;3.40;99.90
57106;DHT22;62662;56.788;23.942;2022-10-31T01:14:44;3.50;99.90
57106;DHT22;62662;56.788;23.942;2022-10-31T01:17:12;3.50;99.90
57106;DHT22;62662;56.788;23.942;2022-10-31T01:19:39;3.50;99.90
57106;DHT22;62662;56.788;23.942;2022-10-31T01:22:06;3.50;99.90
57106;DHT22;62662;56.788;23.942;2022-10-31T01:24:33;3.60;99.90
57106;DHT22;62662;56.788;23.942;2022-10-31T01:27:00;3.70;99.90
57106;DHT22;62662;56.788;23.942;2022-10-31T01:29:27;3.70;99.90
57106;DHT22;62662;56.788;23.942;2022-10-31T01:31:54;3.70;99.90
57106;DHT22;62662;56.788;23.942;2022-10-31T01:34:21;3.60;99.90
57106;DHT22;62662;56.788;23.942;2022-10-31T01:36:48;3.60;99.90
57106;DHT22;62662;56.788;23.942;2022-10-31T01:39:18;3.60;99.90
57106;DHT22;62662;56.788;23.942;2022-10-31T01:41:47;3.60;99.90
57106;DHT22;62662;56.788;23.942;2022-10-31T01:49:31;3.50;99.90
57106;DHT22;62662;56.788;23.942;2022-10-31T01:52:22;3.50;99.90
57106;DHT22;62662;56.788;23.942;2022-10-31T01:55:05;3.50;99.90
57106;DHT22;62662;56.788;23.942;2022-10-31T01:57:34;3.40;99.90
57106;DHT22;62662;56.788;23.942;2022-10-31T02:00:06;3.40;99.90
57106;DHT22;62662;56.788;23.942;2022-10-31T02:02:34;3.30;99.90
57106;DHT22;62662;56.788;23.942;2022-10-31T02:05:05;3.30;99.90
57106;DHT22;62662;56.788;23.942;2022-10-31T02:07:41;3.30;99.90
57106;DHT22;62662;56.788;23.942;2022-10-31T02:10:08;3.20;99.90
57106;DHT22;62662;56.788;23.942;2022-10-31T02:12:36;3.20;99.90
57106;DHT22;62662;56.788;23.942;2022-10-31T02:15:05;3.30;99.90
57106;DHT22;62662;56.788;23.942;2022-10-31T02:17:32;3.30;99.90
57106;DHT22;62662;56.788;23.942;2022-10-31T02:20:12;3.30;99.90
57106;DHT22;62662;56.788;23.942;2022-10-31T02:25:49;3.20;99.90
57106;DHT22;62662;56.788;23.942;2022-10-31T02:34:01;3.20;99.90
57106;DHT22;62662;56.788;23.942;2022-10-31T02:36:57;3.10;99.90
57106;DHT22;62662;56.788;23.942;2022-10-31T02:42:16;3.10;99.90
57106;DHT22;62662;56.788;23.942;2022-10-31T02:47:36;3.10;99.90
57106;DHT22;62662;56.788;23.942;2022-10-31T02:50:11;3.10;99.90
57106;DHT22;62662;56.788;23.942;2022-10-31T02:52:39;3.20;99.90
57106;DHT22;62662;56.788;23.942;2022-10-31T02:55:42;3.20;99.90
57106;DHT22;62662;56.788;23.942;2022-10-31T02:58:13;3.20;99.90
57106;DHT22;62662;56.788;23.942;2022-10-31T03:03:19;3.20;99.90
57106;DHT22;62662;56.788;23.942;2022-10-31T03:09:22;3.10;99.90
57106;DHT22;62662;56.788;23.942;2022-10-31T03:12:16;3.00;99.90
57106;DHT22;62662;56.788;23.942;2022-10-31T03:17:32;3.10;99.90
57106;DHT22;62662;56.788;23.942;2022-10-31T03:20:01;3.10;99.90
57106;DHT22;62662;56.788;23.942;2022-10-31T03:22:31;3.20;99.90
57106;DHT22;62662;56.788;23.942;2022-10-31T03:25:01;3.20;99.90
57106;DHT22;62662;56.788;23.942;2022-10-31T03:27:32;3.20;99.90
57106;DHT22;62662;56.788;23.942;2022-10-31T03:30:03;3.10;99.90
57106;DHT22;62662;56.788;23.942;2022-10-31T03:32:50;3.10;99.90
57106;DHT22;62662;56.788;23.942;2022-10-31T03:35:21;3.10;99.90
57106;DHT22;62662;56.788;23.942;2022-10-31T03:37:51;3.10;99.90
57106;DHT22;62662;56.788;23.942;2022-10-31T03:40:21;3.00;99.90
57106;DHT22;62662;56.788;23.942;2022-10-31T03:42:54;3.00;99.90
57106;DHT22;62662;56.788;23.942;2022-10-31T03:45:26;2.90;99.90
57106;DHT22;62662;56.788;23.942;2022-10-31T03:47:55;2.90;99.90
57106;DHT22;62662;56.788;23.942;2022-10-31T03:50:27;2.90;99.90
57106;DHT22;62662;56.788;23.942;2022-10-31T03:53:05;2.80;99.90
57106;DHT22;62662;56.788;23.942;2022-10-31T03:55:57;2.70;99.90
57106;DHT22;62662;56.788;23.942;2022-10-31T03:58:32;2.70;99.90
57106;DHT22;62662;56.788;23.942;2022-10-31T04:01:03;2.70;99.90
57106;DHT22;62662;56.788;23.942;2022-10-31T04:03:34;2.70;99.90
57106;DHT22;62662;56.788;23.942;2022-10-31T04:06:05;2.60;99.90
57106;DHT22;62662;56.788;23.942;2022-10-31T04:08:42;2.50;99.90
57106;DHT22;62662;56.788;23.942;2022-10-31T04:11:11;2.40;99.90
57106;DHT22;62662;56.788;23.942;2022-10-31T04:13:40;2.40;99.90
57106;DHT22;62662;56.788;23.942;2022-10-31T04:16:09;2.40;99.90
57106;DHT22;62662;56.788;23.942;2022-10-31T04:18:42;2.40;99.90
57106;DHT22;62662;56.788;23.942;2022-10-31T04:21:10;2.60;99.90
57106;DHT22;62662;56.788;23.942;2022-10-31T04:23:36;2.60;99.90
57106;DHT22;62662;56.788;23.942;2022-10-31T04:26:03;2.60;99.90
57106;DHT22;62662;56.788;23.942;2022-10-31T04:28:30;2.50;99.90
57106;DHT22;62662;56.788;23.942;2022-10-31T04:30:59;2.40;99.90
57106;DHT22;62662;56.788;23.942;2022-10-31T04:33:26;2.50;99.90
57106;DHT22;62662;56.788;23.942;2022-10-31T04:35:53;2.50;99.90
57106;DHT22;62662;56.788;23.942;2022-10-31T04:38:20;2.50;99.90
57106;DHT22;62662;56.788;23.942;2022-10-31T04:40:47;2.50;99.90
57106;DHT22;62662;56.788;23.942;2022-10-31T04:43:13;2.50;99.90
57106;DHT22;62662;56.788;23.942;2022-10-31T04:45:40;2.60;99.90
57106;DHT22;62662;56.788;23.942;2022-10-31T04:48:07;2.60;99.90
57106;DHT22;62662;56.788;23.942;2022-10-31T04:50:34;2.70;99.90
57106;DHT22;62662;56.788;23.942;2022-10-31T04:53:01;2.70;99.90
57106;DHT22;62662;56.788;23.942;2022-10-31T04:55:28;2.70;99.90
57106;DHT22;62662;56.788;23.942;2022-10-31T04:57:55;2.80;99.90
57106;DHT22;62662;56.788;23.942;2022-10-31T05:00:23;2.80;99.90
57106;DHT22;62662;56.788;23.942;2022-10-31T05:02:52;2.80;99.90
57106;DHT22;62662;56.788;23.942;2022-10-31T05:05:22;2.80;99.90
57106;DHT22;62662;56.788;23.942;2022-10-31T05:07:50;2.80;99.90
57106;DHT22;62662;56.788;23.942;2022-10-31T05:10:26;2.90;99.90
57106;DHT22;62662;56.788;23.942;2022-10-31T05:12:55;2.90;99.90
57106;DHT22;62662;56.788;23.942;2022-10-31T05:15:24;3.00;99.90
57106;DHT22;62662;56.788;23.942;2022-10-31T05:17:52;3.00;99.90
57106;DHT22;62662;56.788;23.942;2022-10-31T05:20:21;3.00;99.90
57106;DHT22;62662;56.788;23.942;2022-10-31T05:22:51;3.00;99.90
57106;DHT22;62662;56.788;23.942;2022-10-31T05:25:20;3.00;99.90
57106;DHT22;62662;56.788;23.942;2022-10-31T05:27:49;3.00;99.90
57106;DHT22;62662;56.788;23.942;2022-10-31T05:30:27;3.00;99.90
57106;DHT22;62662;56.788;23.942;2022-10-31T05:32:54;3.00;99.90
57106;DHT22;62662;56.788;23.942;2022-10-31T05:35:32;3.00;99.90
57106;DHT22;62662;56.788;23.942;2022-10-31T05:37:59;3.00;99.90
57106;DHT22;62662;56.788;23.942;2022-10-31T05:40:29;3.00;99.90
57106;DHT22;62662;56.788;23.942;2022-10-31T05:42:57;3.00;99.90
57106;DHT22;62662;56.788;23.942;2022-10-31T05:45:30;3.00;99.90
57106;DHT22;62662;56.788;23.942;2022-10-31T05:47:59;3.00;99.90
57106;DHT22;62662;56.788;23.942;2022-10-31T05:51:08;2.80;99.90
57106;DHT22;62662;56.788;23.942;2022-10-31T06:02:21;3.20;99.90
57106;DHT22;62662;56.788;23.942;2022-10-31T06:05:43;3.20;99.90
57106;DHT22;62662;56.788;23.942;2022-10-31T06:17:15;3.30;99.90
57106;DHT22;62662;56.788;23.942;2022-10-31T06:20:41;3.40;99.90
57106;DHT22;62662;56.788;23.942;2022-10-31T06:30:20;3.40;99.90
57106;DHT22;62662;56.788;23.942;2022-10-31T06:39:54;3.60;99.90
57106;DHT22;62662;56.788;23.942;2022-10-31T06:43:12;3.70;99.90
57106;DHT22;62662;56.788;23.942;2022-10-31T06:46:56;3.70;99.90
57106;DHT22;62662;56.788;23.942;2022-10-31T07:20:13;5.60;99.90
57106;DHT22;62662;56.788;23.942;2022-10-31T07:23:43;6.20;99.90
57106;DHT22;62662;56.788;23.942;2022-10-31T07:56:53;11.30;99.90
57106;DHT22;62662;56.788;23.942;2022-10-31T08:08:00;13.00;99.90
57106;DHT22;62662;56.788;23.942;2022-10-31T09:11:53;22.20;80.30
57106;DHT22;62662;56.788;23.942;2022-10-31T09:25:36;24.90;72.80
57106;DHT22;62662;56.788;23.942;2022-10-31T09:34:54;26.10;67.80
57106;DHT22;62662;56.788;23.942;2022-10-31T09:40:42;25.60;66.40
57106;DHT22;62662;56.788;23.942;2022-10-31T09:50:27;24.40;65.50
57106;DHT22;62662;56.788;23.942;2022-10-31T09:53:13;25.10;65.40
57106;DHT22;62662;56.788;23.942;2022-10-31T09:55:49;24.90;66.80
57106;DHT22;62662;56.788;23.942;2022-10-31T09:58:26;24.60;65.70
57106;DHT22;62662;56.788;23.942;2022-10-31T10:03:59;23.60;65.70
57106;DHT22;62662;56.788;23.942;2022-10-31T10:06:35;23.50;66.70
57106;DHT22;62662;56.788;23.942;2022-10-31T10:09:09;23.30;67.10
57106;DHT22;62662;56.788;23.942;2022-10-31T10:15:24;22.40;68.00
57106;DHT22;62662;56.788;23.942;2022-10-31T10:20:36;22.60;68.50
57106;DHT22;62662;56.788;23.942;2022-10-31T10:23:38;22.60;67.30
57106;DHT22;62662;56.788;23.942;2022-10-31T10:26:20;23.20;66.60
57106;DHT22;62662;56.788;23.942;2022-10-31T10:29:23;23.30;66.10
57106;DHT22;62662;56.788;23.942;2022-10-31T10:32:06;23.60;65.50
57106;DHT22;62662;56.788;23.942;2022-10-31T10:35:07;24.30;65.40
57106;DHT22;62662;56.788;23.942;2022-10-31T10:37:40;24.30;65.30
57106;DHT22;62662;56.788;23.942;2022-10-31T10:40:53;22.90;67.50
57106;DHT22;62662;56.788;23.942;2022-10-31T10:43:41;22.20;66.50
57106;DHT22;62662;56.788;23.942;2022-10-31T10:46:44;22.90;65.90
57106;DHT22;62662;56.788;23.942;2022-10-31T10:49:40;22.70;64.60
57106;DHT22;62662;56.788;23.942;2022-10-31T10:58:22;22.30;64.60
57106;DHT22;62662;56.788;23.942;2022-10-31T11:01:23;22.70;65.40
57106;DHT22;62662;56.788;23.942;2022-10-31T11:03:54;22.20;65.50
57106;DHT22;62662;56.788;23.942;2022-10-31T11:06:23;21.00;66.40
57106;DHT22;62662;56.788;23.942;2022-10-31T11:09:08;22.00;67.40
57106;DHT22;62662;56.788;23.942;2022-10-31T11:11:39;21.60;66.70
57106;DHT22;62662;56.788;23.942;2022-10-31T11:17:38;21.60;65.70
57106;DHT22;62662;56.788;23.942;2022-10-31T11:22:46;22.70;63.40
57106;DHT22;62662;56.788;23.942;2022-10-31T11:25:30;23.20;64.10
57106;DHT22;62662;56.788;23.942;2022-10-31T11:28:09;23.50;61.30
57106;DHT22;62662;56.788;23.942;2022-10-31T11:30:58;22.20;62.30
57106;DHT22;62662;56.788;23.942;2022-10-31T11:33:52;22.00;64.80
57106;DHT22;62662;56.788;23.942;2022-10-31T11:36:35;21.70;66.40
57106;DHT22;62662;56.788;23.942;2022-10-31T11:39:17;21.80;65.70
57106;DHT22;62662;56.788;23.942;2022-10-31T11:41:50;21.30;65.60
57106;DHT22;62662;56.788;23.942;2022-10-31T11:47:04;23.00;63.60
57106;DHT22;62662;56.788;23.942;2022-10-31T11:49:40;22.50;62.80
57106;DHT22;62662;56.788;23.942;2022-10-31T11:52:17;23.60;59.40
57106;DHT22;62662;56.788;23.942;2022-10-31T11:54:53;22.20;61.00
57106;DHT22;62662;56.788;23.942;2022-10-31T11:57:25;19.80;65.80
57106;DHT22;62662;56.788;23.942;2022-10-31T12:00:00;17.50;70.30
57106;DHT22;62662;56.788;23.942;2022-10-31T12:02:28;15.80;75.60
57106;DHT22;62662;56.788;23.942;2022-10-31T12:05:07;14.60;79.20
57106;DHT22;62662;56.788;23.942;2022-10-31T12:07:37;13.70;83.50
57106;DHT22;62662;56.788;23.942;2022-10-31T12:10:11;13.20;84.80
57106;DHT22;62662;56.788;23.942;2022-10-31T12:15:33;12.50;90.90
57106;DHT22;62662;56.788;23.942;2022-10-31T12:26:26;12.10;93.40
57106;DHT22;62662;56.788;23.942;2022-10-31T12:29:00;12.00;94.20
57106;DHT22;62662;56.788;23.942;2022-10-31T12:34:30;11.90;96.00
57106;DHT22;62662;56.788;23.942;2022-10-31T12:51:37;11.60;99.90
57106;DHT22;62662;56.788;23.942;2022-10-31T12:59:57;11.30;99.90
57106;DHT22;62662;56.788;23.942;2022-10-31T13:02:43;11.20;99.90
57106;DHT22;62662;56.788;23.942;2022-10-31T13:08:06;11.20;99.90
57106;DHT22;62662;56.788;23.942;2022-10-31T13:16:16;11.10;99.90
57106;DHT22;62662;56.788;23.942;2022-10-31T13:18:55;11.00;99.90
57106;DHT22;62662;56.788;23.942;2022-10-31T13:21:32;10.90;99.90
57106;DHT22;62662;56.788;23.942;2022-10-31T13:24:04;10.80;99.90
57106;DHT22;62662;56.788;23.942;2022-10-31T13:26:53;10.80;99.90
57106;DHT22;62662;56.788;23.942;2022-10-31T13:29:37;10.70;99.90
57106;DHT22;62662;56.788;23.942;2022-10-31T13:32:05;10.70;99.90
57106;DHT22;62662;56.788;23.942;2022-10-31T13:34:37;10.60;99.90
57106;DHT22;62662;56.788;23.942;2022-10-31T13:37:30;10.60;99.90
57106;DHT22;62662;56.788;23.942;2022-10-31T13:45:23;10.40;99.90
57106;DHT22;62662;56.788;23.942;2022-10-31T13:48:17;10.40;99.90
57106;DHT22;62662;56.788;23.942;2022-10-31T13:51:03;10.40;99.90
57106;DHT22;62662;56.788;23.942;2022-10-31T13:53:42;10.30;99.90
57106;DHT22;62662;56.788;23.942;2022-10-31T13:56:32;10.20;99.90
57106;DHT22;62662;56.788;23.942;2022-10-31T14:04:24;10.00;99.90
57106;DHT22;62662;56.788;23.942;2022-10-31T14:07:16;9.90;99.90
57106;DHT22;62662;56.788;23.942;2022-10-31T14:10:21;9.90;99.90
57106;DHT22;62662;56.788;23.942;2022-10-31T14:12:50;10.00;99.90
57106;DHT22;62662;56.788;23.942;2022-10-31T14:15:19;9.80;99.90
57106;DHT22;62662;56.788;23.942;2022-10-31T14:17:57;9.70;99.90
57106;DHT22;62662;56.788;23.942;2022-10-31T14:29:01;9.30;99.90
57106;DHT22;62662;56.788;23.942;2022-10-31T14:37:12;9.10;99.90
57106;DHT22;62662;56.788;23.942;2022-10-31T14:51:18;8.60;99.90
57106;DHT22;62662;56.788;23.942;2022-10-31T14:56:24;8.30;99.90
57106;DHT22;62662;56.788;23.942;2022-10-31T14:58:54;8.20;99.90
57106;DHT22;62662;56.788;23.942;2022-10-31T15:01:31;8.10;99.90
57106;DHT22;62662;56.788;23.942;2022-10-31T15:04:14;8.00;99.90
57106;DHT22;62662;56.788;23.942;2022-10-31T15:06:53;7.80;99.90
57106;DHT22;62662;56.788;23.942;2022-10-31T15:09:27;7.80;99.90
57106;DHT22;62662;56.788;23.942;2022-10-31T15:11:59;7.80;99.90
57106;DHT22;62662;56.788;23.942;2022-10-31T15:14:29;7.70;99.90
57106;DHT22;62662;56.788;23.942;2022-10-31T15:16:58;7.70;99.90
57106;DHT22;62662;56.788;23.942;2022-10-31T15:19:30;7.60;99.90
57106;DHT22;62662;56.788;23.942;2022-10-31T15:21:57;7.60;99.90
57106;DHT22;62662;56.788;23.942;2022-10-31T15:24:32;7.50;99.90
57106;DHT22;62662;56.788;23.942;2022-10-31T15:27:01;7.50;99.90
57106;DHT22;62662;56.788;23.942;2022-10-31T15:29:31;7.50;99.90
57106;DHT22;62662;56.788;23.942;2022-10-31T15:32:15;7.70;99.90
57106;DHT22;62662;56.788;23.942;2022-10-31T15:34:45;7.60;99.90
57106;DHT22;62662;56.788;23.942;2022-10-31T15:37:14;7.50;99.90
57106;DHT22;62662;56.788;23.942;2022-10-31T15:39:43;7.40;99.90
57106;DHT22;62662;56.788;23.942;2022-10-31T15:42:21;7.40;99.90
57106;DHT22;62662;56.788;23.942;2022-10-31T15:44:55;7.50;99.90
57106;DHT22;62662;56.788;23.942;2022-10-31T15:47:24;7.50;99.90
57106;DHT22;62662;56.788;23.942;2022-10-31T15:49:56;7.40;99.90
57106;DHT22;62662;56.788;23.942;2022-10-31T15:55:19;7.30;99.90
57106;DHT22;62662;56.788;23.942;2022-10-31T15:57:52;7.30;99.90
57106;DHT22;62662;56.788;23.942;2022-10-31T16:03:21;7.00;99.90
57106;DHT22;62662;56.788;23.942;2022-10-31T16:05:53;7.10;99.90
57106;DHT22;62662;56.788;23.942;2022-10-31T16:11:31;6.90;99.90
57106;DHT22;62662;56.788;23.942;2022-10-31T16:14:37;6.90;99.90
57106;DHT22;62662;56.788;23.942;2022-10-31T16:17:12;6.80;99.90
57106;DHT22;62662;56.788;23.942;2022-10-31T16:20:00;6.90;99.90
57106;DHT22;62662;56.788;23.942;2022-10-31T16:22:32;6.80;99.90
57106;DHT22;62662;56.788;23.942;2022-10-31T16:25:28;6.70;99.90
57106;DHT22;62662;56.788;23.942;2022-10-31T16:28:22;6.50;99.90
57106;DHT22;62662;56.788;23.942;2022-10-31T16:30:58;6.40;99.90
57106;DHT22;62662;56.788;23.942;2022-10-31T16:33:36;6.30;99.90
57106;DHT22;62662;56.788;23.942;2022-10-31T16:39:02;6.10;99.90
57106;DHT22;62662;56.788;23.942;2022-10-31T16:41:37;6.00;99.90
57106;DHT22;62662;56.788;23.942;2022-10-31T16:44:19;5.90;99.90
57106;DHT22;62662;56.788;23.942;2022-10-31T16:49:34;5.80;99.90
57106;DHT22;62662;56.788;23.942;2022-10-31T16:52:05;6.00;99.90
57106;DHT22;62662;56.788;23.942;2022-10-31T16:54:32;6.00;99.90
57106;DHT22;62662;56.788;23.942;2022-10-31T16:57:03;6.10;99.90
57106;DHT22;62662;56.788;23.942;2022-10-31T16:59:31;6.00;99.90
57106;DHT22;62662;56.788;23.942;2022-10-31T17:02:02;6.00;99.90
57106;DHT22;62662;56.788;23.942;2022-10-31T17:04:32;6.00;99.90
57106;DHT22;62662;56.788;23.942;2022-10-31T17:06:59;5.90;99.90
57106;DHT22;62662;56.788;23.942;2022-10-31T17:09:27;5.90;99.90
57106;DHT22;62662;56.788;23.942;2022-10-31T17:11:58;5.90;99.90
57106;DHT22;62662;56.788;23.942;2022-10-31T17:14:26;5.90;99.90
57106;DHT22;62662;56.788;23.942;2022-10-31T17:16:54;5.90;99.90
57106;DHT22;62662;56.788;23.942;2022-10-31T17:19:26;5.90;99.90
57106;DHT22;62662;56.788;23.942;2022-10-31T17:21:56;5.90;99.90
57106;DHT22;62662;56.788;23.942;2022-10-31T17:24:27;6.00;99.90
57106;DHT22;62662;56.788;23.942;2022-10-31T17:26:56;6.20;99.90
57106;DHT22;62662;56.788;23.942;2022-10-31T17:29:24;6.30;99.90
57106;DHT22;62662;56.788;23.942;2022-10-31T17:31:51;6.40;99.90
57106;DHT22;62662;56.788;23.942;2022-10-31T17:34:19;6.40;99.90
57106;DHT22;62662;56.788;23.942;2022-10-31T17:36:52;6.40;99.90
57106;DHT22;62662;56.788;23.942;2022-10-31T17:39:20;6.40;99.90
57106;DHT22;62662;56.788;23.942;2022-10-31T17:41:50;6.30;99.90
57106;DHT22;62662;56.788;23.942;2022-10-31T17:44:20;6.20;99.90
57106;DHT22;62662;56.788;23.942;2022-10-31T17:46:54;6.10;99.90
57106;DHT22;62662;56.788;23.942;2022-10-31T17:49:24;6.10;99.90
57106;DHT22;62662;56.788;23.942;2022-10-31T17:51:52;6.00;99.90
57106;DHT22;62662;56.788;23.942;2022-10-31T17:54:19;6.00;99.90
57106;DHT22;62662;56.788;23.942;2022-10-31T17:56:48;6.10;99.90
57106;DHT22;62662;56.788;23.942;2022-10-31T17:59:17;6.20;99.90
57106;DHT22;62662;56.788;23.942;2022-10-31T18:01:45;6.20;99.90
57106;DHT22;62662;56.788;23.942;2022-10-31T18:04:14;6.30;99.90
57106;DHT22;62662;56.788;23.942;2022-10-31T18:06:42;6.40;99.90
57106;DHT22;62662;56.788;23.942;2022-10-31T18:09:11;6.30;99.90
57106;DHT22;62662;56.788;23.942;2022-10-31T18:11:39;6.40;99.90
57106;DHT22;62662;56.788;23.942;2022-10-31T18:14:08;6.50;99.90
57106;DHT22;62662;56.788;23.942;2022-10-31T18:16:36;6.40;99.90
57106;DHT22;62662;56.788;23.942;2022-10-31T18:19:03;6.40;99.90
57106;DHT22;62662;56.788;23.942;2022-10-31T18:21:37;6.40;99.90
57106;DHT22;62662;56.788;23.942;2022-10-31T18:24:05;6.40;99.90
57106;DHT22;62662;56.788;23.942;2022-10-31T18:26:34;6.40;99.90
57106;DHT22;62662;56.788;23.942;2022-10-31T18:29:02;6.50;99.90
57106;DHT22;62662;56.788;23.942;2022-10-31T18:31:34;6.60;99.90
57106;DHT22;62662;56.788;23.942;2022-10-31T18:34:01;6.60;99.90
57106;DHT22;62662;56.788;23.942;2022-10-31T18:36:28;6.60;99.90
57106;DHT22;62662;56.788;23.942;2022-10-31T18:38:57;6.50;99.90
57106;DHT22;62662;56.788;23.942;2022-10-31T18:41:24;6.50;99.90
57106;DHT22;62662;56.788;23.942;2022-10-31T18:43:56;6.60;99.90
57106;DHT22;62662;56.788;23.942;2022-10-31T18:46:26;6.60;99.90
57106;DHT22;62662;56.788;23.942;2022-10-31T18:48:54;6.60;99.90
57106;DHT22;62662;56.788;23.942;2022-10-31T18:51:23;6.50;99.90
57106;DHT22;62662;56.788;23.942;2022-10-31T18:53:53;6.50;99.90
57106;DHT22;62662;56.788;23.942;2022-10-31T18:56:22;6.50;99.90
57106;DHT22;62662;56.788;23.942;2022-10-31T18:58:53;6.50;99.90
57106;DHT22;62662;56.788;23.942;2022-10-31T19:01:25;6.60;99.90
57106;DHT22;62662;56.788;23.942;2022-10-31T19:03:56;6.70;99.90
57106;DHT22;62662;56.788;23.942;2022-10-31T19:06:25;6.70;99.90
57106;DHT22;62662;56.788;23.942;2022-10-31T19:09:03;6.80;99.90
57106;DHT22;62662;56.788;23.942;2022-10-31T19:11:32;6.80;99.90
57106;DHT22;62662;56.788;23.942;2022-10-31T19:13:59;6.90;99.90
57106;DHT22;62662;56.788;23.942;2022-10-31T19:16:28;7.00;99.90
57106;DHT22;62662;56.788;23.942;2022-10-31T19:18:56;7.00;99.90
57106;DHT22;62662;56.788;23.942;2022-10-31T19:21:26;7.10;99.90
57106;DHT22;62662;56.788;23.942;2022-10-31T19:23:57;7.20;99.90
57106;DHT22;62662;56.788;23.942;2022-10-31T19:26:26;7.30;99.90
57106;DHT22;62662;56.788;23.942;2022-10-31T19:28:56;7.40;99.90
57106;DHT22;62662;56.788;23.942;2022-10-31T19:31:24;7.50;99.90
57106;DHT22;62662;56.788;23.942;2022-10-31T19:33:52;7.50;99.90
57106;DHT22;62662;56.788;23.942;2022-10-31T19:36:20;7.40;99.90
57106;DHT22;62662;56.788;23.942;2022-10-31T19:38:49;7.40;99.90
57106;DHT22;62662;56.788;23.942;2022-10-31T19:41:27;7.50;99.90
57106;DHT22;62662;56.788;23.942;2022-10-31T19:43:58;7.50;99.90
57106;DHT22;62662;56.788;23.942;2022-10-31T19:46:26;7.50;99.90
57106;DHT22;62662;56.788;23.942;2022-10-31T19:49:13;7.50;99.90
57106;DHT22;62662;56.788;23.942;2022-10-31T19:51:40;7.60;99.90
57106;DHT22;62662;56.788;23.942;2022-10-31T19:54:09;7.50;99.90
57106;DHT22;62662;56.788;23.942;2022-10-31T19:56:37;7.60;99.90
57106;DHT22;62662;56.788;23.942;2022-10-31T19:59:05;7.60;99.90
57106;DHT22;62662;56.788;23.942;2022-10-31T20:01:33;7.70;99.90
57106;DHT22;62662;56.788;23.942;2022-10-31T20:04:01;7.60;99.90
57106;DHT22;62662;56.788;23.942;2022-10-31T20:06:40;6.80;99.90
57106;DHT22;62662;56.788;23.942;2022-10-31T20:09:10;7.50;99.90
57106;DHT22;62662;56.788;23.942;2022-10-31T20:11:43;7.50;99.90
57106;DHT22;62662;56.788;23.942;2022-10-31T20:14:16;7.30;99.90
57106;DHT22;62662;56.788;23.942;2022-10-31T20:16:44;7.30;99.90
57106;DHT22;62662;56.788;23.942;2022-10-31T20:19:11;7.30;99.90
57106;DHT22;62662;56.788;23.942;2022-10-31T20:21:39;7.20;99.90
57106;DHT22;62662;56.788;23.942;2022-10-31T20:24:08;7.30;99.90
57106;DHT22;62662;56.788;23.942;2022-10-31T20:26:39;7.30;99.90
57106;DHT22;62662;56.788;23.942;2022-10-31T20:29:08;7.30;99.90
57106;DHT22;62662;56.788;23.942;2022-10-31T20:31:39;7.20;99.90
57106;DHT22;62662;56.788;23.942;2022-10-31T20:34:07;7.20;99.90
57106;DHT22;62662;56.788;23.942;2022-10-31T20:36:37;7.20;99.90
57106;DHT22;62662;56.788;23.942;2022-10-31T20:39:04;7.20;99.90
57106;DHT22;62662;56.788;23.942;2022-10-31T20:41:31;7.30;99.90
57106;DHT22;62662;56.788;23.942;2022-10-31T20:44:01;7.30;99.90
57106;DHT22;62662;56.788;23.942;2022-10-31T20:46:29;7.30;99.90
57106;DHT22;62662;56.788;23.942;2022-10-31T20:48:56;7.20;99.90
57106;DHT22;62662;56.788;23.942;2022-10-31T20:51:26;7.20;99.90
57106;DHT22;62662;56.788;23.942;2022-10-31T20:53:57;7.10;99.90
57106;DHT22;62662;56.788;23.942;2022-10-31T20:56:26;7.20;99.90
57106;DHT22;62662;56.788;23.942;2022-10-31T20:58:56;7.20;99.90
57106;DHT22;62662;56.788;23.942;2022-10-31T21:01:29;6.90;99.90
57106;DHT22;62662;56.788;23.942;2022-10-31T21:03:58;7.40;99.90
57106;DHT22;62662;56.788;23.942;2022-10-31T21:06:25;7.40;99.90
57106;DHT22;62662;56.788;23.942;2022-10-31T21:08:53;7.40;99.90
57106;DHT22;62662;56.788;23.942;2022-10-31T21:11:23;7.30;99.90
57106;DHT22;62662;56.788;23.942;2022-10-31T21:13:51;7.20;99.90
57106;DHT22;62662;56.788;23.942;2022-10-31T21:16:23;7.20;99.90
57106;DHT22;62662;56.788;23.942;2022-10-31T21:18:51;7.30;99.90
57106;DHT22;62662;56.788;23.942;2022-10-31T21:21:32;7.20;99.90
57106;DHT22;62662;56.788;23.942;2022-10-31T21:24:04;7.20;99.90
57106;DHT22;62662;56.788;23.942;2022-10-31T21:26:36;7.30;99.90
57106;DHT22;62662;56.788;23.942;2022-10-31T21:29:04;7.40;99.90
57106;DHT22;62662;56.788;23.942;2022-10-31T21:31:34;7.40;99.90
57106;DHT22;62662;56.788;23.942;2022-10-31T21:34:01;7.50;99.90
57106;DHT22;62662;56.788;23.942;2022-10-31T21:36:29;7.50;99.90
57106;DHT22;62662;56.788;23.942;2022-10-31T21:38:56;7.50;99.90
57106;DHT22;62662;56.788;23.942;2022-10-31T21:41:26;7.60;99.90
57106;DHT22;62662;56.788;23.942;2022-10-31T21:43:53;7.60;99.90
57106;DHT22;62662;56.788;23.942;2022-10-31T21:46:24;7.60;99.90